Terminal Aerodrome Forecast
Issued by NWS

Home | Current Version | Previous Version | Text Only | Print | Product List | Glossary On
Versions: 1 2 3 4 5 6 7 8 9 10 11 12 13 14 15
069
FTUS43 KGRR 261142
TAFAZO
TAF
KAZO 261142Z 2612/2712 27010KT P6SM SCT015
     FM261500 28015G25KT P6SM VCTS SCT025 BKN035CB
     FM270100 29010KT P6SM BKN040
     FM270600 30005KT P6SM SCT040=

USA.gov is the U.S. government's official web portal to all federal, state and local government web resources and services.